Terminal Aerodrome Forecast
Issued by NWS Sioux Falls, SD

Home | Current Version | Previous Version | Text Only | Print | Product List | Glossary On
Versions: 1 2 3 4 5 6 7 8 9 10 11 12 13 14 15
000
FTUS43 KFSD 171100
TAFHON
TAF
KHON 171120Z 1712/1812 35005KT P6SM SCT250
     FM171600 10007KT P6SM SCT100
     FM171900 13009KT P6SM BKN090
     FM180200 11013KT P6SM OVC080
     FM180800 14016G24KT P6SM OVC070=

USA.gov is the U.S. government's official web portal to all federal, state and local government web resources and services.